createdAt,value
2023-07-25T00:03:29.811Z,20.51
2023-07-25T00:08:29.811Z,20.75
2023-07-25T00:13:29.814Z,20.82
2023-07-25T00:18:29.816Z,20.75
2023-07-25T00:23:29.802Z,20.66
2023-07-25T00:28:29.885Z,20.69
2023-07-25T00:33:30.019Z,20.62
2023-07-25T00:38:29.848Z,20.59
2023-07-25T00:43:30.174Z,20.64
2023-07-25T00:48:30.025Z,20.49
2023-07-25T00:53:29.830Z,20.37
2023-07-25T00:58:29.816Z,20.55
2023-07-25T01:03:29.834Z,20.69
2023-07-25T01:08:29.820Z,20.58
2023-07-25T01:13:29.838Z,20.39
2023-07-25T01:18:29.838Z,20.06
2023-07-25T01:23:29.825Z,19.83
2023-07-25T01:28:29.842Z,19.83
2023-07-25T01:33:29.829Z,19.94
2023-07-25T01:38:29.847Z,19.91
2023-07-25T01:43:29.848Z,19.7
2023-07-25T01:48:29.851Z,19.56
2023-07-25T01:53:29.937Z,19.42
2023-07-25T01:58:29.838Z,19.37
2023-07-25T02:03:29.856Z,19.28
2023-07-25T02:08:30.045Z,19.37
2023-07-25T02:13:29.860Z,19.44
2023-07-25T02:18:29.861Z,19.34
2023-07-25T02:23:29.847Z,19.37
2023-07-25T02:28:29.864Z,19.43
2023-07-25T02:33:29.851Z,19.39
2023-07-25T02:38:29.898Z,19.39
2023-07-25T02:43:29.871Z,19.44
2023-07-25T02:48:29.873Z,19.15
2023-07-25T02:53:29.937Z,19.03
2023-07-25T02:58:30.090Z,19.17
2023-07-25T03:03:29.877Z,19.24
2023-07-25T03:08:29.864Z,19.27
2023-07-25T03:13:30.058Z,19.12
2023-07-25T03:18:29.883Z,19.2
2023-07-25T03:23:29.919Z,19.25
2023-07-25T03:28:29.887Z,19.2
2023-07-25T03:33:29.927Z,19.02
2023-07-25T03:38:29.890Z,19.04
2023-07-25T03:43:29.876Z,19.12
2023-07-25T03:48:29.894Z,18.94
2023-07-25T03:53:29.895Z,18.84
2023-07-25T03:58:29.881Z,18.91
2023-07-25T04:03:29.899Z,19.12
2023-07-25T04:08:29.885Z,19.61
2023-07-25T04:13:29.903Z,19.79
2023-07-25T04:18:29.905Z,20
2023-07-25T04:23:29.907Z,20.04
2023-07-25T04:28:29.933Z,20.1
2023-07-25T04:33:29.894Z,20.06
2023-07-25T04:38:29.911Z,20.2
2023-07-25T04:43:29.898Z,20.14
2023-07-25T04:48:30.170Z,19.99
2023-07-25T04:53:29.946Z,20.06
2023-07-25T04:58:29.919Z,20.29
2023-07-25T05:03:29.986Z,20.58
2023-07-25T05:08:29.907Z,20.84
2023-07-25T05:13:30.042Z,20.58
2023-07-25T05:18:30.221Z,20.4
2023-07-25T05:23:29.929Z,20.29
2023-07-25T05:28:29.930Z,20.14
2023-07-25T05:33:29.916Z,19.74
2023-07-25T05:38:29.934Z,19.45
2023-07-25T05:43:29.920Z,19.56
2023-07-25T05:48:30.135Z,19.79
2023-07-25T05:53:29.939Z,20.02
2023-07-25T05:58:30.100Z,20.12
2023-07-25T06:03:30.218Z,20.34
2023-07-25T06:08:30.073Z,20.58
2023-07-25T06:13:29.947Z,20.74
2023-07-25T06:18:30.068Z,21.04
2023-07-25T06:23:30.080Z,21.35
2023-07-25T06:28:29.952Z,21.43
2023-07-25T06:33:29.955Z,21.33
2023-07-25T06:38:29.957Z,21.44
2023-07-25T06:43:30.007Z,21.4
2023-07-25T06:48:29.959Z,21.44
2023-07-25T06:53:29.947Z,21.32
2023-07-25T06:58:30.119Z,21.2
2023-07-25T07:03:29.966Z,20.93
2023-07-25T07:08:29.952Z,20.57
2023-07-25T07:13:29.970Z,20.32
2023-07-25T07:18:29.956Z,20.37
2023-07-25T07:23:29.974Z,20.79
2023-07-25T07:28:29.962Z,20.94
2023-07-25T07:33:29.978Z,20.98
2023-07-25T07:38:30.020Z,21.3
2023-07-25T07:43:29.965Z,21.45
2023-07-25T07:48:29.983Z,22.18
2023-07-25T07:53:29.969Z,22.67
2023-07-25T07:58:29.987Z,22.9
2023-07-25T08:03:29.990Z,22.72
2023-07-25T08:08:30.300Z,22.96
2023-07-25T08:13:30.177Z,23.22
2023-07-25T08:18:29.980Z,22.68
2023-07-25T08:23:29.998Z,22.57
2023-07-25T08:28:29.984Z,22.15
2023-07-25T08:33:30.001Z,21.95
2023-07-25T08:38:30.003Z,21.71
2023-07-25T08:43:30.389Z,21.25
2023-07-25T08:48:30.008Z,21.16
2023-07-25T08:53:29.994Z,21.55
2023-07-25T08:58:30.012Z,21.88
2023-07-25T09:03:30.014Z,22.03
2023-07-25T09:08:30.016Z,22.62
2023-07-25T09:13:30.061Z,23.95
2023-07-25T09:18:30.308Z,27.03
2023-07-25T09:23:30.074Z,26.02
2023-07-25T09:28:30.009Z,25.69
2023-07-25T09:33:30.148Z,30.3
2023-07-25T09:38:30.030Z,33.31
2023-07-25T09:43:30.171Z,33.41
2023-07-25T09:48:30.035Z,34.66
2023-07-25T09:53:30.021Z,34.84
2023-07-25T09:58:30.039Z,34.52
2023-07-25T10:03:30.027Z,32.61
2023-07-25T10:08:30.187Z,30.77
2023-07-25T10:13:30.048Z,28.95
2023-07-25T10:18:30.035Z,30.5
2023-07-25T10:23:30.199Z,32.24
2023-07-25T10:28:30.041Z,33.22
2023-07-25T10:33:30.059Z,30.88
2023-07-25T10:38:30.061Z,29.01
2023-07-25T10:43:30.064Z,27.14
2023-07-25T10:48:30.335Z,25.29
2023-07-25T10:53:30.053Z,25.18
2023-07-25T10:58:30.072Z,25.83
2023-07-25T11:03:30.058Z,29.1
2023-07-25T11:08:30.302Z,31.59
2023-07-25T11:13:30.079Z,31.82
2023-07-25T11:18:30.281Z,31.17
2023-07-25T11:23:30.215Z,29.05
2023-07-25T11:28:30.071Z,28.04
2023-07-25T11:33:30.090Z,29.34
2023-07-25T11:38:30.076Z,28.73
2023-07-25T11:43:30.095Z,29.23
2023-07-25T11:48:30.097Z,30.21
2023-07-25T11:53:30.099Z,31.89
2023-07-25T11:58:30.102Z,30.1
2023-07-25T12:03:30.149Z,30.19
2023-07-25T12:08:30.141Z,32.68
2023-07-25T12:13:30.111Z,31.88
2023-07-25T12:18:30.283Z,30.16
2023-07-25T12:23:30.253Z,28.49
2023-07-25T12:28:30.103Z,29.44
2023-07-25T12:33:30.120Z,28.81
2023-07-25T12:38:30.186Z,30.28
2023-07-25T12:43:30.190Z,30.99
2023-07-25T12:48:30.204Z,29.31
2023-07-25T12:53:30.341Z,28
2023-07-25T12:58:30.477Z,26.62
2023-07-25T13:03:30.121Z,25.71
2023-07-25T13:08:30.300Z,25
2023-07-25T13:13:30.318Z,23.29
2023-07-25T13:18:30.144Z,21.45
2023-07-25T13:23:30.145Z,20.83
2023-07-25T13:28:30.131Z,20.83
2023-07-25T13:33:30.150Z,22.15
2023-07-25T13:38:30.263Z,24.77
2023-07-25T13:43:30.154Z,26.79
2023-07-25T13:48:30.156Z,26.58
2023-07-25T13:53:30.159Z,25.95
2023-07-25T13:58:30.487Z,27.02
2023-07-25T14:03:30.147Z,29.52
2023-07-25T14:08:30.166Z,30.83
2023-07-25T14:13:30.208Z,31.72
2023-07-25T14:18:30.171Z,30.31
2023-07-25T14:23:30.465Z,27.84
2023-07-25T14:28:30.176Z,27.65
2023-07-25T14:33:30.178Z,26.13
2023-07-25T14:38:30.374Z,25.94
2023-07-25T14:43:30.182Z,25.63
2023-07-25T14:48:30.170Z,25.2
2023-07-25T14:53:30.188Z,24.75
2023-07-25T14:58:30.190Z,24.71
2023-07-25T15:03:30.447Z,24.56
2023-07-25T15:08:30.195Z,24.29
2023-07-25T15:18:30.198Z,23.92
2023-07-25T15:23:30.375Z,23.91
2023-07-25T15:28:30.204Z,24.62
2023-07-25T15:33:30.464Z,25.57
2023-07-25T15:38:30.192Z,26.45
2023-07-25T15:43:30.210Z,26.67
2023-07-25T15:48:30.349Z,28.09
2023-07-25T15:53:30.216Z,28.14
2023-07-25T15:58:30.218Z,27.46
2023-07-25T16:03:35.802Z,26.63
2023-07-25T16:08:30.222Z,25.83
2023-07-25T16:13:30.374Z,25.26
2023-07-25T16:18:30.227Z,25.47
2023-07-25T16:23:30.214Z,25.8
2023-07-25T16:28:30.232Z,26
2023-07-25T16:33:30.461Z,25.89
2023-07-25T16:38:30.221Z,25.51
2023-07-25T16:43:30.238Z,25.34
2023-07-25T16:48:30.554Z,24.91
2023-07-25T16:53:30.314Z,24.49
2023-07-25T16:58:30.487Z,24.11
2023-07-25T17:03:30.392Z,23.91
2023-07-25T17:08:30.249Z,23.45
2023-07-25T17:13:30.237Z,23.05
2023-07-25T17:18:30.255Z,22.27
2023-07-25T17:23:30.241Z,21.47
2023-07-25T17:28:30.283Z,20.85
2023-07-25T17:33:30.261Z,20.37
2023-07-25T17:38:30.574Z,19.86
2023-07-25T17:43:30.411Z,19.51
2023-07-25T17:48:30.251Z,19.32
2023-07-25T17:53:30.268Z,19.2
2023-07-25T17:58:30.503Z,18.92
2023-07-25T18:03:30.272Z,18.73
2023-07-25T18:08:30.273Z,18.65
2023-07-25T18:13:30.260Z,18.64
2023-07-25T18:18:30.277Z,18.77
2023-07-25T18:23:30.263Z,18.79
2023-07-25T18:28:30.315Z,18.75
2023-07-25T18:33:30.283Z,18.64
2023-07-25T18:38:30.285Z,18.6
2023-07-25T18:43:30.285Z,18.68
2023-07-25T18:48:30.421Z,18.69
2023-07-25T18:53:30.290Z,18.75
2023-07-25T18:58:30.276Z,18.75
2023-07-25T19:03:30.399Z,18.89
2023-07-25T19:08:30.294Z,18.84
2023-07-25T19:13:30.377Z,18.7
2023-07-25T19:18:30.299Z,18.56
2023-07-25T19:23:30.284Z,18.33
2023-07-25T19:28:30.627Z,18.24
2023-07-25T19:33:30.546Z,18.34
2023-07-25T19:38:30.306Z,18.21
2023-07-25T19:43:30.307Z,18.27
2023-07-25T19:48:30.294Z,18.31
2023-07-25T19:53:30.310Z,18.32
2023-07-25T19:58:30.395Z,18.26
2023-07-25T20:03:30.365Z,18.19
2023-07-25T20:08:30.315Z,18.03
2023-07-25T20:13:30.318Z,17.98
2023-07-25T20:18:30.333Z,17.87
2023-07-25T20:23:30.305Z,17.73
2023-07-25T20:28:30.364Z,17.62
2023-07-25T20:33:30.427Z,17.7
2023-07-25T20:38:30.350Z,17.7
2023-07-25T20:43:30.328Z,17.67
2023-07-25T20:48:30.391Z,17.69
2023-07-25T20:53:30.330Z,17.59
2023-07-25T20:58:30.317Z,17.61
2023-07-25T21:03:30.334Z,17.5
2023-07-25T21:08:30.335Z,17.46
2023-07-25T21:13:30.338Z,17.43
2023-07-25T21:18:30.402Z,17.4
2023-07-25T21:23:30.325Z,17.53
2023-07-25T21:28:30.344Z,17.6
2023-07-25T21:33:30.328Z,17.71
2023-07-25T21:38:30.484Z,17.73
2023-07-25T21:43:30.371Z,17.7
2023-07-25T21:48:30.349Z,17.66
2023-07-25T21:53:30.381Z,17.75
2023-07-25T21:58:30.336Z,17.77
2023-07-25T22:03:30.354Z,17.87
2023-07-25T22:08:30.401Z,17.96
2023-07-25T22:13:30.486Z,17.78
2023-07-25T22:18:30.358Z,17.62
2023-07-25T22:23:30.345Z,17.53
2023-07-25T22:28:30.533Z,17.34
2023-07-25T22:33:30.349Z,17.28
2023-07-25T22:38:30.400Z,17.26
2023-07-25T22:43:30.352Z,17.45
2023-07-25T22:48:30.369Z,17.65
2023-07-25T22:53:30.394Z,17.7
2023-07-25T22:58:30.356Z,17.69
2023-07-25T23:03:30.373Z,17.59
2023-07-25T23:08:30.359Z,17.57
2023-07-25T23:13:30.377Z,17.54
2023-07-25T23:18:30.556Z,17.77
2023-07-25T23:23:30.380Z,17.94
2023-07-25T23:28:30.514Z,17.78
2023-07-25T23:33:30.368Z,17.79
2023-07-25T23:38:30.385Z,17.84
2023-07-25T23:43:30.371Z,17.83
2023-07-25T23:48:30.706Z,17.82
2023-07-25T23:53:36.345Z,17.81
2023-07-25T23:58:30.376Z,17.95
